Terminal Aerodrome Forecast
Issued by NWS Mt. Holly, NJ

Home | Current Version | Previous Version | Text Only | Print | Product List | Glossary On
Versions: 1 2 3 4 5 6 7 8 9 10 11 12 13 14 15 16 17 18 19 20 21 22 23 24 25 26 27 28 29 30 31 32 33 34 35 36
858
FTUS41 KPHI 040916 AAA
TAFPHL
TAF AMD
KPHL 040916Z 0409/0512 05007KT P6SM -RA BKN008 OVC012
      TEMPO 0410/0414 5SM BR
     FM041400 06008KT 5SM -RA BR OVC008
      TEMPO 0418/0422 2SM RA BR OVC005
     FM042200 05010G15KT 5SM -DZ BR OVC007=

USA.gov is the U.S. government's official web portal to all federal, state and local government web resources and services.